Jacupiranga, Brazil
Current Conditions -  °F | °C
As of 10:00 PM on Monday 22 Dec 2014 (Local Time) from SBBI Reporting Station
Overcast Overcast  
Wind Chill: 61°   Ceiling: 700
Heat Index: 61°   Visibility: 5mi
Dew Point: 57°   Wind: 9mph
Humidity: 88%   Direction: 140°SE
Pressure: 30.06"   Gusts: 21mph
Location:  24.69°S, 48°W
Report Text: SBBI 230000Z 14008G18KT 8000 OVC007 16/14 Q1018
Loading
Personal Weather Stations






























Interactive Weather Map New forecast layout! Learn more

10-Day Weather Forecast

Advertisements
Track Severe Weather on mobile